Latest Weather Observations for Shark Bay Airport

IDW60801

Issued at 6:32 am WST Sunday 21 December 2014 (issued every 30 minutes, with the page automatically refreshed every 10 minutes)

About weather observations | Map of weather stations | Latest weather observations for WA | Other Formats
Station Details ID: 006105 Name: SHARK BAY AIRPORT Lat: -25.89 Lon: 113.58 Height: 33.8 m
Data from the previous 72 hours. | See also: Recent months for locations in Western Australia
Date/Time
WST
Temp
°C
App
Temp
°C
Dew
Point
Rel
Hum
%
Delta-T
°C
Wind Press
QNH
hPa
Press
MSL
hPa
Rain
since 9 am
mm
Dir
 
Spd
km/h
Gust
km/h
Spd
kts
Gust
kts
21/06:30am 19.5 18.4 15.4 77 2.4 SSE 15 24 8 13 1011.9 1011.7 0.0
21/06:00am 18.9 17.4 15.2 79 2.2 SSE 17 22 9 12 1011.7 1011.5 0.0
21/05:30am 18.1 16.7 14.4 79 2.1 SSE 15 19 8 10 1011.4 1011.2 0.0
21/05:00am 18.1 16.6 14.2 78 2.2 SSE 15 24 8 13 1011.2 1011.0 0.0
21/04:30am 18.4 16.1 14.1 76 2.5 SSE 19 28 10 15 1011.1 1010.9 0.0
21/04:00am 18.8 15.6 14.3 75 2.6 SSE 24 33 13 18 1010.8 1010.6 0.0
21/03:30am 19.3 15.8 14.6 74 2.7 S 26 35 14 19 1010.7 1010.5 0.0
21/03:00am 19.1 16.8 14.6 75 2.6 S 20 32 11 17 1010.7 1010.5 0.0
21/02:30am 19.1 16.0 14.4 74 2.7 S 24 35 13 19 1010.6 1010.4 0.0
21/02:00am 19.2 15.3 14.5 74 2.7 S 28 39 15 21 1010.7 1010.5 0.0
21/01:30am 19.3 15.5 14.8 75 2.6 S 28 43 15 23 1010.9 1010.7 0.0
21/01:00am 19.1 16.2 15.0 77 2.4 S 24 37 13 20 1011.0 1010.8 0.0
21/12:30am 19.3 16.1 15.2 77 2.4 S 26 44 14 24 1011.1 1010.9 0.0
21/12:00am 19.5 16.4 15.6 78 2.3 S 26 32 14 17 1011.2 1011.0 0.0
 
Date/Time
WST
Temp
°C
App
Temp
°C
Dew
Point
Rel
Hum
%
Delta-T
°C
Wind Press
QNH
hPa
Press
MSL
hPa
Rain
since 9 am
mm
Dir
 
Spd
km/h
Gust
km/h
Spd
kts
Gust
kts
20/11:30pm 19.7 15.4 15.4 76 2.5 S 32 44 17 24 1011.6 1011.4 0.0
20/11:13pm 19.7 15.7 15.1 75 2.7 S 30 48 16 26 1011.5 1011.3 0.0
20/11:00pm 19.9 15.6 15.5 76 2.6 S 32 41 17 22 1011.6 1011.4 0.0
20/10:30pm 19.9 15.6 15.3 75 2.7 S 32 46 17 25 1011.7 1011.5 0.0
20/10:05pm 20.0 16.5 15.4 75 2.7 S 28 46 15 25 1011.7 1011.5 0.0
20/10:00pm 20.1 16.1 15.3 74 2.8 S 30 41 16 22 1011.7 1011.5 0.0
20/09:30pm 20.2 15.9 15.4 74 2.8 S 32 48 17 26 1011.3 1011.1 0.0
20/09:00pm 20.5 16.3 15.7 74 2.9 S 32 46 17 25 1011.0 1010.8 0.0
20/08:48pm 20.5 16.6 15.5 73 3.0 S 30 48 16 26 1011.0 1010.8 0.0
20/08:30pm 20.7 16.3 15.7 73 3.0 S 33 46 18 25 1011.0 1010.8 0.0
20/08:11pm 20.8 16.6 15.8 73 3.0 S 32 50 17 27 1010.9 1010.7 0.0
20/08:00pm 20.8 16.4 15.6 72 3.1 S 33 48 18 26 1010.8 1010.6 0.0
20/07:53pm 20.9 16.9 16.1 74 2.9 S 32 50 17 27 1010.7 1010.5 0.0
20/07:30pm 21.2 17.2 16.2 73 3.0 S 32 44 17 24 1010.6 1010.4 0.0
20/07:00pm 21.6 16.7 15.4 68 3.7 S 35 50 19 27 1010.4 1010.2 0.0
20/06:33pm 22.4 17.6 15.5 65 4.1 S 35 54 19 29 1010.2 1010.0 0.0
20/06:30pm 22.6 18.2 15.7 65 4.1 S 33 48 18 26 1010.2 1010.0 0.0
20/06:10pm 23.2 18.7 15.3 61 4.7 S 33 54 18 29 1010.2 1010.0 0.0
20/06:00pm 23.4 18.3 15.7 62 4.7 SSW 37 52 20 28 1010.1 1009.9 0.0
20/05:30pm 24.2 18.9 15.4 58 5.3 SSW 37 52 20 28 1010.1 1009.9 0.0
20/05:00pm 24.6 19.4 15.5 57 5.5 SSW 37 50 20 27 1010.1 1009.9 0.0
20/04:30pm 25.0 20.1 15.3 55 5.9 S 35 50 19 27 1010.3 1010.1 0.0
20/04:00pm 25.8 21.3 15.5 53 6.3 SSW 33 52 18 28 1010.5 1010.3 0.0
20/03:58pm 26.1 21.6 15.5 52 6.4 SSW 33 52 18 28 1010.4 1010.2 0.0
20/03:30pm 25.9 20.8 14.7 50 6.7 SSW 35 50 19 27 1010.5 1010.3 0.0
20/03:24pm 26.5 22.1 15.2 49 6.8 SSW 32 50 17 27 1010.6 1010.4 0.0
20/03:00pm 26.4 21.2 14.5 48 7.1 S 35 50 19 27 1010.7 1010.5 0.0
20/02:30pm 26.9 21.5 15.0 48 7.2 SSW 37 50 20 27 1011.0 1010.8 0.0
20/02:00pm 26.2 20.9 14.3 48 7.1 SSW 35 46 19 25 1011.2 1011.0 0.0
20/01:30pm 27.4 23.0 15.1 47 7.5 SSW 32 44 17 24 1011.3 1011.1 0.0
20/01:00pm 27.2 22.7 14.9 47 7.4 SSW 32 48 17 26 1011.7 1011.5 0.0
20/12:30pm 26.2 21.4 14.6 48 7.0 SSW 33 43 18 23 1011.9 1011.7 0.0
20/12:00pm 25.9 21.1 14.7 50 6.7 SSW 33 44 18 24 1012.1 1011.9 0.0
20/11:30am 25.8 21.6 14.6 50 6.7 SSW 30 46 16 25 1012.2 1012.0 0.0
20/11:00am 25.2 21.0 14.6 51 6.3 SSW 30 46 16 25 1012.7 1012.5 0.0
20/10:30am 25.5 21.6 15.5 54 6.1 SSW 30 44 16 24 1012.8 1012.6 0.0
20/10:00am 24.9 21.8 15.5 56 5.7 SSW 26 39 14 21 1013.0 1012.8 0.0
20/09:30am 24.1 20.8 15.1 57 5.4 SSW 26 35 14 19 1013.0 1012.8 0.0
20/09:00am 23.3 19.3 15.1 60 4.9 SSW 30 39 16 21 1012.9 1012.7 0.0
20/08:30am 22.6 19.4 15.2 63 4.4 SSW 26 33 14 18 1012.8 1012.6 0.0
20/08:00am 22.0 18.3 14.9 64 4.2 SSW 28 37 15 20 1012.8 1012.6 0.0
20/07:30am 21.7 18.4 15.1 66 3.9 SSW 26 37 14 20 1012.6 1012.4 0.0
20/07:00am 21.3 18.5 15.4 69 3.5 SSW 24 32 13 17 1012.5 1012.3 0.0
20/06:30am 21.0 18.5 15.1 69 3.5 SSW 22 30 12 16 1012.1 1011.9 0.0
20/06:00am 21.0 18.4 15.8 72 3.1 SSW 24 33 13 18 1011.7 1011.5 0.0
20/05:30am 20.9 18.5 15.4 71 3.3 SSW 22 32 12 17 1011.5 1011.3 0.0
20/05:00am 20.9 18.5 15.4 71 3.3 SSW 22 32 12 17 1011.2 1011.0 0.0
20/04:30am 20.8 18.7 15.1 70 3.4 SSW 20 32 11 17 1010.9 1010.7 0.0
20/04:00am 21.0 18.7 15.8 72 3.1 SSW 22 28 12 15 1011.0 1010.8 0.0
20/03:30am 20.9 19.0 15.7 72 3.1 SSW 20 26 11 14 1011.1 1010.9 0.0
20/03:00am 20.9 18.5 15.4 71 3.3 SSW 22 32 12 17 1011.2 1011.0 0.0
20/02:30am 20.9 18.1 15.4 71 3.3 SSW 24 30 13 16 1011.3 1011.1 0.0
20/02:00am 21.0 18.4 15.8 72 3.1 SSW 24 35 13 19 1011.2 1011.0 0.0
20/01:30am 20.9 18.2 15.7 72 3.1 SSW 24 32 13 17 1011.3 1011.1 0.0
20/01:00am 20.9 17.4 15.4 71 3.3 SSW 28 35 15 19 1011.4 1011.2 0.0
20/12:30am 21.0 18.4 15.8 72 3.1 SSW 24 35 13 19 1011.7 1011.5 0.0
20/12:00am 21.0 18.1 16.0 73 3.0 SSW 26 39 14 21 1011.7 1011.5 0.0
 
Date/Time
WST
Temp
°C
App
Temp
°C
Dew
Point
Rel
Hum
%
Delta-T
°C
Wind Press
QNH
hPa
Press
MSL
hPa
Rain
since 9 am
mm
Dir
 
Spd
km/h
Gust
km/h
Spd
kts
Gust
kts
19/11:30pm 21.0 18.1 16.0 73 3.0 SSW 26 37 14 20 1011.8 1011.6 0.0
19/11:00pm 21.0 17.7 16.0 73 3.0 SSW 28 41 15 22 1012.0 1011.8 0.0
19/10:30pm 21.3 18.2 16.5 74 2.9 SSW 28 41 15 22 1012.1 1011.9 0.0
19/10:00pm 21.3 18.9 16.3 73 3.0 SSW 24 35 13 19 1012.2 1012.0 0.0
19/09:30pm 21.3 18.1 16.3 73 3.0 SW 28 39 15 21 1012.1 1011.9 0.0
19/09:00pm 21.4 18.3 16.6 74 2.9 SSW 28 39 15 21 1011.8 1011.6 0.0
19/08:30pm 21.7 19.6 17.1 75 2.8 SW 24 35 13 19 1011.5 1011.3 0.0
19/08:00pm 21.8 18.9 17.0 74 2.9 SW 28 37 15 20 1011.1 1010.9 0.0
19/07:30pm 21.8 19.3 17.0 74 2.9 SW 26 35 14 19 1010.8 1010.6 0.0
19/07:00pm 22.1 19.2 17.0 73 3.1 SW 28 39 15 21 1010.5 1010.3 0.0
19/06:30pm 22.6 19.0 17.1 71 3.4 SW 32 41 17 22 1010.1 1009.9 0.0
19/06:00pm 23.5 19.5 17.5 69 3.7 SW 35 43 19 23 1009.7 1009.5 0.0
19/05:30pm 24.1 20.4 16.9 64 4.4 SW 32 43 17 23 1009.4 1009.2 0.0
19/05:00pm 24.5 20.3 17.2 63 4.5 SW 35 46 19 25 1009.4 1009.2 0.0
19/04:30pm 25.8 22.3 18.0 62 4.9 SW 33 44 18 24 1009.2 1009.0 0.0
19/04:00pm 25.6 21.9 17.5 61 5.1 SW 33 46 18 25 1009.1 1008.9 0.0
19/03:30pm 26.3 22.2 17.4 58 5.6 SW 35 44 19 24 1009.0 1008.8 0.0
19/03:00pm 26.7 23.1 17.2 56 6.0 SW 32 39 17 21 1009.2 1009.0 0.0
19/02:30pm 27.9 24.5 17.7 53 6.5 SW 32 41 17 22 1009.3 1009.1 0.0
19/02:00pm 27.8 24.7 17.6 53 6.5 SW 30 41 16 22 1009.5 1009.3 0.0
19/01:30pm 28.3 24.9 18.1 54 6.5 SW 33 41 18 22 1009.6 1009.4 0.0
19/01:00pm 27.8 24.7 17.6 53 6.5 SW 30 39 16 21 1009.8 1009.6 0.0
19/12:30pm 27.1 24.4 17.6 56 6.0 SW 28 39 15 21 1009.9 1009.7 0.0
19/12:00pm 26.7 25.1 18.3 60 5.3 SW 24 33 13 18 1010.0 1009.8 0.0
19/11:30am 28.9 27.0 17.7 50 7.1 SSW 24 35 13 19 1010.1 1009.9 0.0
19/11:00am 26.2 23.8 17.3 58 5.6 SSW 26 33 14 18 1010.5 1010.3 0.0
19/10:30am 25.5 22.5 16.9 59 5.3 SSW 28 35 15 19 1010.3 1010.1 0.0
19/10:00am 25.8 23.4 17.4 59 5.3 SSW 26 37 14 20 1010.2 1010.0 0.0
19/09:30am 24.9 22.6 17.6 64 4.6 SSW 26 37 14 20 1010.2 1010.0 0.0
19/09:00am 24.7 22.6 17.2 63 4.7 SSW 24 32 13 17 1010.1 1009.9 0.0
19/08:30am 24.2 22.8 17.9 68 3.9 SSW 22 33 12 18 1010.3 1010.1 0.0
19/08:00am 23.8 21.4 17.3 67 4.0 SSW 26 35 14 19 1009.9 1009.7 0.0
19/07:30am 23.0 20.4 17.7 72 3.3 SSW 28 37 15 20 1009.9 1009.7 0.0
19/07:00am 22.9 20.7 17.8 73 3.2 SSW 26 33 14 18 1009.4 1009.2 0.0
19/06:30am 21.7 20.5 17.5 77 2.6 SSW 20 33 11 18 1009.2 1009.0 0.0
19/06:00am 21.3 19.6 17.3 78 2.5 SSW 22 30 12 16 1008.9 1008.7 0.0
19/05:30am 21.1 19.8 17.3 79 2.3 SSW 20 32 11 17 1008.6 1008.4 0.0
19/05:00am 21.2 19.0 17.0 77 2.6 SSW 24 35 13 19 1008.5 1008.3 0.0
19/04:30am 21.4 19.6 17.0 76 2.7 S 22 32 12 17 1008.2 1008.0 0.0
19/04:00am 21.7 18.7 16.9 74 2.9 SSW 28 37 15 20 1008.1 1007.9 0.0
19/03:30am 21.8 19.4 16.5 72 3.2 SSW 24 32 13 17 1008.3 1008.1 0.0
19/03:00am 21.9 19.3 16.0 69 3.6 SSW 24 39 13 21 1008.3 1008.1 0.0
19/02:30am 22.0 19.4 15.8 68 3.7 SSW 24 33 13 18 1008.4 1008.2 0.0
19/02:00am 22.0 19.4 15.8 68 3.7 SSW 24 32 13 17 1008.6 1008.4 0.0
19/01:30am 22.0 19.4 15.8 68 3.7 S 24 37 13 20 1008.9 1008.7 0.0
19/01:00am 22.2 19.3 16.0 68 3.7 S 26 37 14 20 1009.0 1008.8 0.0
19/12:30am 22.3 19.8 16.1 68 3.7 S 24 35 13 19 1009.2 1009.0 0.0
19/12:00am 22.2 19.3 16.0 68 3.7 S 26 35 14 19 1009.3 1009.1 0.0
 
Date/Time
WST
Temp
°C
App
Temp
°C
Dew
Point
Rel
Hum
%
Delta-T
°C
Wind Press
QNH
hPa
Press
MSL
hPa
Rain
since 9 am
mm
Dir
 
Spd
km/h
Gust
km/h
Spd
kts
Gust
kts
18/11:30pm 22.4 19.9 16.2 68 3.8 S 24 33 13 18 1009.6 1009.4 0.0
18/11:00pm 22.4 20.8 16.4 69 3.7 S 20 30 11 16 1009.6 1009.4 0.0
18/10:30pm 22.5 20.3 16.8 70 3.5 S 24 33 13 18 1009.7 1009.5 0.0
18/10:00pm 22.6 20.4 16.9 70 3.5 S 24 33 13 18 1009.8 1009.6 0.0
18/09:30pm 22.8 20.5 16.6 68 3.8 S 24 33 13 18 1009.7 1009.5 0.0
18/09:00pm 23.1 20.6 16.2 65 4.2 S 24 43 13 23 1009.5 1009.3 0.0
18/08:30pm 23.2 21.0 17.0 68 3.8 SSW 24 33 13 18 1009.4 1009.2 0.0
18/08:00pm 23.5 20.7 16.3 64 4.4 SSW 26 33 14 18 1009.1 1008.9 0.0
18/07:30pm 24.3 20.7 15.2 57 5.5 SSW 28 37 15 20 1009.0 1008.8 0.0
18/07:00pm 25.5 21.3 14.6 51 6.5 SSW 30 41 16 22 1008.6 1008.4 0.0
18/06:30pm 26.5 22.0 14.9 49 7.0 SSW 32 41 17 22 1008.5 1008.3 0.0
18/06:00pm 27.9 23.6 14.5 44 8.1 SSW 30 41 16 22 1008.3 1008.1 0.0
18/05:30pm 28.9 24.1 13.9 39 9.0 SSW 32 39 17 21 1008.2 1008.0 0.0
18/05:00pm 28.8 25.4 15.7 45 8.1 SW 28 35 15 19 1008.1 1007.9 0.0
18/04:30pm 29.2 26.6 16.0 44 8.2 SW 24 39 13 21 1008.2 1008.0 0.0
18/04:00pm 29.7 27.2 17.2 47 7.9 SW 26 33 14 18 1008.3 1008.1 0.0
18/03:30pm 29.9 27.0 17.0 45 8.1 SW 28 35 15 19 1008.5 1008.3 0.0
18/03:00pm 30.7 28.0 16.7 43 8.8 SW 26 35 14 19 1008.4 1008.2 0.0
18/02:30pm 31.8 28.7 14.4 34 10.6 SW 24 32 13 17 1008.5 1008.3 0.0
18/02:00pm 32.0 27.7 10.7 27 12.3 SW 24 32 13 17 1008.7 1008.5 0.0
18/01:30pm 31.5 26.5 9.7 26 12.4 SW 26 33 14 18 1008.8 1008.6 0.0
18/01:00pm 31.6 26.7 9.8 26 12.4 SSW 26 35 14 19 1009.0 1008.8 0.0
18/12:30pm 30.7 25.5 10.1 28 11.7 SW 28 35 15 19 1009.4 1009.2 0.0
18/12:00pm 29.4 23.9 10.5 31 10.8 SW 30 37 16 20 1009.7 1009.5 0.0
18/11:30am 29.3 24.7 10.9 32 10.5 SW 26 37 14 20 1009.9 1009.7 0.0
18/11:00am 29.1 26.0 11.6 33 10.1 S 19 37 10 20 1010.2 1010.0 0.0
18/10:30am 28.6 25.0 9.8 31 10.5 S 19 26 10 14 1010.4 1010.2 0.0
18/10:00am 28.0 24.3 10.2 33 10.0 S 20 30 11 16 1010.6 1010.4 0.0
18/09:30am 27.0 23.3 10.2 35 9.4 S 20 32 11 17 1010.6 1010.4 0.0
18/09:00am 25.3 21.5 11.1 41 8.0 S 22 32 12 17 1010.9 1010.7 0.0
18/08:30am 24.8 20.6 11.0 42 7.7 SSE 24 33 13 18 1010.9 1010.7 0.0
18/08:00am 23.5 19.0 11.5 47 6.8 SSE 26 39 14 21 1010.9 1010.7 0.0
18/07:30am 22.2 17.6 12.2 53 5.7 SSE 28 39 15 21 1011.0 1010.8 0.0
18/07:00am 21.2 17.7 13.4 61 4.5 S 24 33 13 18 1010.8 1010.6 0.0

Other Formats:

Comma delimited format used in spreadsheet applications
http://www.bom.gov.au/fwo/IDW60801/IDW60801.95402.axf

JavaScript Object Notation format (JSON) in row-major order
http://www.bom.gov.au/fwo/IDW60801/IDW60801.95402.json